• Join FlightAware (Why Join?)
  • Login
  • US Flag 
08:35PM EDT


 

Airport Tracker/Info


-or-


 

Live Flight TrackerFlight Track Log ✈ UAL4236 ✈ 31-Jan-2014 ✈ KIAH - KELP

Flight Track Log - Related Links

Times and Time Zones

All times are in EST time to prevent confusion due to time zone crossing. See the UAL4236 flight status page for this flight to view local times or setup timezone preferences in your user account.

Time Position Orientation Groundspeed Altitude Reporting Facility
EST Latitude Longitude Course Direction KTS MPH feet Rate Location/Type
09:43AM 29.9661 -95.3456 276° West 152 175 700  Level Houston Center
09:44AM 29.9436 -95.3531 196° South 170 196 2,000 1,920 Climbing Houston Center
09:45AM 29.9419 -95.4256 268° West 246 283 3,900 1,800 Climbing Houston Center
09:45AM 29.9422 -95.4222 85° East 236 272 3,900 2,400 Level Houston Center
09:46AM 29.9542 -95.5011 280° West 248 285 6,500 2,400 Climbing Houston Center
09:47AM 29.9714 -95.5825 284° West 260 299 8,900 2,160 Climbing Houston Center
09:48AM 30.0458 -95.9491 276° West  Level FlightAware Approximate
09:48AM 29.9906 -95.6636 285° West 264 304 11,000  Level Houston Center
09:49AM 30.0083 -95.7544 283° West 287 330 12,100 900 Climbing Houston Center
09:50AM 30.0342 -95.8806 283° West 336 387 12,900 900 Climbing Houston Center
09:51AM 30.0575 -95.9928 284° West 358 412 14,000 960 Climbing Houston Center
09:52AM 30.0775 -96.1003 282° West 367 422 14,900 900 Climbing Houston Center
09:53AM 30.0950 -96.2181 280° West 373 429 15,900 1,020 Climbing Houston Center
09:54AM 30.1172 -96.3608 280° West 378 435 17,100 1,020 Climbing Houston Center
09:55AM 30.1339 -96.4694 280° West 378 435 18,000 960 Climbing Houston Center
09:56AM 30.1533 -96.5892 281° West 374 430 19,100 1,080 Climbing Houston Center
09:57AM 30.1747 -96.7333 280° West 383 441 20,300 1,080 Climbing Houston Center
09:58AM 30.1922 -96.8558 279° West 383 441 21,400 1,020 Climbing Houston Center
09:59AM 30.2114 -96.9814 280° West 390 449 22,400 1,200 Climbing Houston Center
10:00AM 30.2289 -97.1050 279° West 387 445 23,900 1,440 Climbing Houston Center
10:01AM 30.2475 -97.2242 280° West 376 433 25,400 1,260 Climbing Houston Center
10:02AM 30.2661 -97.3431 280° West 371 427 26,600 1,020 Climbing Houston Center
10:03AM 30.2892 -97.4625 283° West 376 433 27,600 1,020 Climbing Houston Center
10:04AM 30.3131 -97.5814 283° West 375 432 28,700 1,020 Climbing Houston Center
10:05AM 30.3364 -97.7014 283° West 377 434 29,700 960 Climbing Houston Center
10:06AM 30.3594 -97.8217 283° West 377 434 30,700 1,020 Climbing Houston Center
10:07AM 30.3858 -97.9628 282° West 380 437 31,900 1,080 Climbing Houston Center
10:08AM 30.4094 -98.0836 283° West 380 437 33,000 960 Climbing Houston Center
10:09AM 30.4322 -98.2044 282° West 381 438 34,000 960 Climbing Houston Center
10:10AM 30.4547 -98.3264 282° West 382 440 35,100 960 Climbing Houston Center
10:11AM 30.4778 -98.4467 283° West 379 436 36,000 420 Climbing Houston Center
10:12AM 30.5006 -98.5683 282° West 383 441 36,000  Level Houston Center
10:13AM 30.5244 -98.6975 282° West 400 460 36,000  Level Houston Center
10:14AM 30.5472 -98.8244 282° West 400 460 36,000  Level Houston Center
10:16AM 30.5750 -98.9700 283° West 394 453 36,000  Level Houston Center
10:17AM 30.5975 -99.0950 282° West 391 450 36,000  Level Houston Center
10:18AM 30.6208 -99.2214 282° West 386 444 36,000  Level Houston Center
10:19AM 30.6417 -99.3425 281° West 385 443 36,000  Level Houston Center
10:20AM 30.6636 -99.4606 282° West 379 436 36,000  Level Houston Center
10:21AM 30.6847 -99.5803 282° West 380 437 36,000  Level Houston Center
10:22AM 30.7067 -99.7006 282° West 382 440 36,000  Level Houston Center
10:23AM 30.7325 -99.8425 282° West 378 435 36,000  Level Houston Center
10:24AM 30.7522 -99.9619 281° West 378 435 36,000  Level Houston Center
10:25AM 30.7739 -100.0811 282° West 380 437 36,000  Level Houston Center
10:26AM 30.7939 -100.2031 281° West 383 441 36,000  Level Houston Center
10:27AM 30.8158 -100.3239 282° West 385 443 36,000  Level Houston Center
10:28AM 30.8397 -100.4694 281° West 384 442 36,000  Level Houston Center
10:29AM 30.8611 -100.5894 282° West 381 438 36,000  Level Houston Center
10:30AM 30.8811 -100.7103 281° West 382 440 36,000  Level Houston Center
10:31AM 30.9019 -100.8300 281° West 380 437 36,000  Level Houston Center
10:32AM 30.9222 -100.9494 281° West 378 435 36,000  Level Houston Center
10:33AM 30.9456 -101.0914 281° West 374 430 36,000  Level Houston Center
10:34AM 30.9647 -101.2122 281° West 378 435 36,000  Level Houston Center
10:35AM 30.9839 -101.3353 280° West 377 434 36,000  Level Houston Center
10:36AM 31.0036 -101.4547 281° West 376 433 36,000  Level Houston Center
10:37AM 31.0236 -101.5747 281° West 377 434 36,000  Level Houston Center
10:38AM 31.0428 -101.6964 280° West 380 437 36,000  Level Houston Center
10:39AM 31.0625 -101.8172 281° West 380 437 36,000  Level Houston Center
10:40AM 31.0858 -101.9622 281° West 379 436 36,000  Level Houston Center
10:41AM 31.1044 -102.0836 280° West 379 436 36,000  Level Houston Center
10:42AM 31.1236 -102.2064 280° West 380 437 36,000 -60 Level Houston Center
10:43AM 31.1414 -102.3303 280° West 380 437 35,900  Descending Houston Center
10:45AM 31.1611 -102.4539 281° West 381 438 36,000  Climbing Houston Center
10:46AM 31.1792 -102.5778 280° West 384 442 36,000  Level Albuquerque Center
10:47AM 31.1975 -102.6981 280° West 380 437 36,000  Level Albuquerque Center
10:48AM 31.2164 -102.8181 280° West 377 434 36,000  Level Albuquerque Center
10:49AM 31.2342 -102.9364 280° West 374 430 36,000  Level Albuquerque Center
10:50AM 31.2542 -103.0767 280° West 369 425 36,000 -60 Level Albuquerque Center
10:51AM 31.2725 -103.1925 281° West 365 420 35,900 -540 Descending Albuquerque Center
10:52AM 31.2892 -103.3086 280° West 364 419 34,900 -1,020 Descending Albuquerque Center
10:53AM 31.3053 -103.4233 279° West 361 415 33,900 -1,020 Descending Albuquerque Center
10:54AM 31.3225 -103.5389 280° West 360 414 32,900 -960 Descending Albuquerque Center
10:55AM 31.3400 -103.6639 279° West 376 433 32,000 -540 Descending Albuquerque Center
10:56AM 31.3583 -103.7881 280° West 386 444 31,900 -600 Descending Albuquerque Center
10:57AM 31.3786 -103.9325 279° West 381 438 30,800 -1,080 Descending Albuquerque Center
10:58AM 31.3958 -104.0581 279° West 385 443 29,700 -1,080 Descending Albuquerque Center
10:59AM 31.4142 -104.1867 280° West 394 453 28,600 -1,020 Descending Albuquerque Center
11:00AM 31.4342 -104.3164 280° West 400 460 27,600 -1,020 Descending Albuquerque Center
11:01AM 31.4500 -104.4447 278° West 401 461 26,500 -840 Descending Albuquerque Center
11:02AM 31.4644 -104.5733 278° West 400 460 25,900 -480 Descending Albuquerque Center
11:03AM 31.4803 -104.7250 277° West 396 456 25,600 -660 Descending Albuquerque Center
11:04AM 31.4911 -104.8506 276° West 391 450 24,600 -1,020 Descending Albuquerque Center
11:05AM 31.5050 -104.9739 278° West 386 444 23,500 -1,080 Descending Albuquerque Center
11:06AM 31.5239 -105.0953 280° West 381 438 22,400 -1,080 Descending Albuquerque Center
11:07AM 31.5361 -105.2200 277° West 383 441 21,300 -1,140 Descending Albuquerque Center
11:08AM 31.5469 -105.3647 275° West 383 441 20,100 -1,260 Descending Albuquerque Center
11:09AM 31.5564 -105.4878 275° West 378 435 18,800 -1,680 Descending Albuquerque Center
11:10AM 31.5647 -105.5686 277° West 364 419 17,300 -2,280 Descending Albuquerque Center
11:10AM 31.5672 -105.6053 275° West 363 418 16,500 -2,700 Descending Albuquerque Center
11:11AM 31.5750 -105.6458 283° West 338 389 15,400 -2,760 Descending Albuquerque Center
11:11AM 31.5806 -105.7219 275° West 337 388 13,700 -2,340 Descending Albuquerque Center
11:12AM 31.5828 -105.7561 274° West 332 382 13,100 -1,260 Descending Albuquerque Center
11:12AM 31.6008 -105.8283 286° West 335 386 12,400 -1,020 Descending Albuquerque Center
11:13AM 31.6147 -105.8581 299° West 339 390 12,100 -1,200 Descending Albuquerque Center
11:13AM 31.6519 -105.9186 306° West 328 377 11,200 -1,200 Descending Albuquerque Center
11:14AM 31.6683 -105.9392 313° West 306 352 10,900 -1,260 Descending Albuquerque Center
11:14AM 31.7050 -105.9928 309° West 276 318 9,900 -1,320 Descending Albuquerque Center
11:15AM 31.7150 -106.0075 309° West 260 299 9,600 -1,380 Descending Albuquerque Center
11:15AM 31.7517 -106.0592 310° West 263 303 8,500 -1,500 Descending Albuquerque Center
11:16AM 31.7617 -106.0756 306° West 259 298 8,100 -1,260 Descending Albuquerque Center
11:16AM 31.7972 -106.1256 310° West 261 300 7,200 -1,140 Descending Albuquerque Center
11:17AM 31.8081 -106.1414 309° West 260 299 7,000 -900 Descending Albuquerque Center
11:18AM 31.8439 -106.1928 309° West 245 282 6,300 -840 Descending Albuquerque Center
11:18AM 31.8508 -106.2006 316° Northwest 227 261 6,200 -420 Descending Albuquerque Center
11:19AM 31.8622 -106.2531 284° West 201 231 5,900 -300 Descending Albuquerque Center
11:19AM 31.8642 -106.2622 284° West 189 217 5,900 -420 Level Albuquerque Center
11:20AM 31.8650 -106.3042 271° West 147 169 5,500 -540 Descending Albuquerque Center
11:20AM 31.8622 -106.3103 242° Southwest 124 143 5,400 -780 Descending Albuquerque Center
11:21AM 31.8447 -106.3392 235° Southwest 122 140 4,700 -840 Descending Albuquerque Center
11:21AM 31.8425 -106.3428 234° Southwest 112 129 4,600 -600 Descending Albuquerque Center
11:22AM 31.8225 -106.3689 228° Southwest 121 139 4,100 -600 Descending Albuquerque Center